createdAt,value
2022-12-31T00:00:05.904Z,47.07
2022-12-31T00:01:05.830Z,49.63
2022-12-31T00:02:05.972Z,49.50
2022-12-31T00:03:05.955Z,48.20
2022-12-31T00:04:06.798Z,48.86
2022-12-31T00:05:05.871Z,47.90
2022-12-31T00:06:05.783Z,51.84
2022-12-31T00:07:05.785Z,51.41
2022-12-31T00:08:05.795Z,50.98
2022-12-31T00:09:05.809Z,48.19
2022-12-31T00:10:05.802Z,49.71
2022-12-31T00:11:05.779Z,49.43
2022-12-31T00:12:05.764Z,49.06
2022-12-31T00:13:05.751Z,49.47
2022-12-31T00:14:05.796Z,50.25
2022-12-31T00:15:05.780Z,53.28
2022-12-31T00:16:11.830Z,49.29
2022-12-31T00:17:07.747Z,48.49
2022-12-31T00:18:05.748Z,49.74
2022-12-31T00:19:05.743Z,49.92
2022-12-31T00:20:05.709Z,48.20
2022-12-31T00:21:05.700Z,49.41
2022-12-31T00:22:05.681Z,48.96
2022-12-31T00:23:05.680Z,50.63
2022-12-31T00:24:05.700Z,49.78
2022-12-31T00:25:05.674Z,49.41
2022-12-31T00:26:05.662Z,49.77
2022-12-31T00:27:05.666Z,49.54
2022-12-31T00:28:05.654Z,50.40
2022-12-31T00:29:05.638Z,47.83
2022-12-31T00:30:05.644Z,48.02
2022-12-31T00:31:05.705Z,47.38
2022-12-31T00:32:05.609Z,47.56
2022-12-31T00:33:05.612Z,48.91
2022-12-31T00:34:05.627Z,47.65
2022-12-31T00:35:05.621Z,47.74
2022-12-31T00:36:05.625Z,50.30
2022-12-31T00:37:05.601Z,48.16
2022-12-31T00:38:05.563Z,47.29
2022-12-31T00:39:05.560Z,48.67
2022-12-31T00:40:05.553Z,48.97
2022-12-31T00:41:05.574Z,50.42
2022-12-31T00:42:05.549Z,48.96
2022-12-31T00:43:05.560Z,48.10
2022-12-31T00:44:05.532Z,48.66
2022-12-31T00:45:05.559Z,48.16
2022-12-31T00:46:05.562Z,48.47
2022-12-31T00:47:05.570Z,49.12
2022-12-31T00:48:05.522Z,49.97
2022-12-31T00:49:05.523Z,47.76
2022-12-31T00:50:05.502Z,48.10
2022-12-31T00:51:05.478Z,48.36
2022-12-31T00:52:05.545Z,50.82
2022-12-31T00:53:05.474Z,47.80
2022-12-31T00:54:05.506Z,50.72
2022-12-31T00:55:05.500Z,47.71
2022-12-31T00:56:05.455Z,48.32
2022-12-31T00:57:05.474Z,51.80
2022-12-31T00:58:05.511Z,47.64
2022-12-31T00:59:05.451Z,49.03
2022-12-31T01:00:05.426Z,49.29
2022-12-31T01:01:05.569Z,50.90
2022-12-31T01:02:05.612Z,52.05
2022-12-31T01:03:05.538Z,52.09
2022-12-31T01:04:05.437Z,49.45
2022-12-31T01:05:05.401Z,49.59
2022-12-31T01:06:05.404Z,47.46
2022-12-31T01:07:06.427Z,47.41
2022-12-31T01:08:05.398Z,49.71
2022-12-31T01:09:05.387Z,52.13
2022-12-31T01:10:05.395Z,49.14
2022-12-31T01:11:05.372Z,47.68
2022-12-31T01:12:05.406Z,47.66
2022-12-31T01:13:05.358Z,47.58
2022-12-31T01:14:05.381Z,48.44
2022-12-31T01:15:05.349Z,51.12
2022-12-31T01:16:05.383Z,48.31
2022-12-31T01:17:05.352Z,51.11
2022-12-31T01:18:05.313Z,47.97
2022-12-31T01:19:05.357Z,49.20
2022-12-31T01:20:05.304Z,47.85
2022-12-31T01:21:05.334Z,48.74
2022-12-31T01:22:05.354Z,49.43
2022-12-31T01:23:05.286Z,47.94
2022-12-31T01:24:05.313Z,47.99
2022-12-31T01:25:05.267Z,49.19
2022-12-31T01:26:05.299Z,49.33
2022-12-31T01:27:05.268Z,51.52
2022-12-31T01:28:05.265Z,48.91
2022-12-31T01:29:05.318Z,48.56
2022-12-31T01:30:05.303Z,49.80
2022-12-31T01:31:05.239Z,49.95
2022-12-31T01:32:05.274Z,50.03
2022-12-31T01:33:05.238Z,47.89
2022-12-31T01:34:05.212Z,47.79
2022-12-31T01:35:05.247Z,50.42
2022-12-31T01:36:05.188Z,47.63
2022-12-31T01:37:05.198Z,47.47
2022-12-31T01:38:05.180Z,48.86
2022-12-31T01:39:05.188Z,49.43
2022-12-31T01:40:05.206Z,49.36
2022-12-31T01:41:05.167Z,48.42
2022-12-31T01:42:05.173Z,48.16
2022-12-31T01:43:05.163Z,48.92
2022-12-31T01:44:05.138Z,48.72
2022-12-31T01:45:05.165Z,52.18
2022-12-31T01:46:05.173Z,50.84
2022-12-31T01:47:05.137Z,49.89
2022-12-31T01:48:05.116Z,50.40
2022-12-31T01:49:05.111Z,48.49
2022-12-31T01:50:05.099Z,48.13
2022-12-31T01:51:05.128Z,49.43
2022-12-31T01:52:05.143Z,49.45
2022-12-31T01:53:05.084Z,51.60
2022-12-31T01:54:05.081Z,52.78
2022-12-31T01:55:05.067Z,51.23
2022-12-31T01:56:05.056Z,52.40
2022-12-31T01:57:05.135Z,51.60
2022-12-31T01:58:05.051Z,51.21
2022-12-31T01:59:05.049Z,49.81
2022-12-31T02:00:05.033Z,48.46
2022-12-31T02:01:05.082Z,49.73
2022-12-31T02:02:05.217Z,48.39
2022-12-31T02:03:05.096Z,48.69
2022-12-31T02:04:05.022Z,50.22
2022-12-31T02:05:05.006Z,50.72
2022-12-31T02:06:05.028Z,51.57
2022-12-31T02:07:05.081Z,51.33
2022-12-31T02:08:05.001Z,51.92
2022-12-31T02:09:04.989Z,49.72
2022-12-31T02:10:04.963Z,50.23
2022-12-31T02:11:04.971Z,52.43
2022-12-31T02:12:04.924Z,51.58
2022-12-31T02:13:05.974Z,49.32
2022-12-31T02:14:04.927Z,51.35
2022-12-31T02:15:04.919Z,49.05
2022-12-31T02:16:04.934Z,50.10
2022-12-31T02:17:04.909Z,51.62
2022-12-31T02:18:04.972Z,53.74
2022-12-31T02:19:04.949Z,55.07
2022-12-31T02:20:04.898Z,53.59
2022-12-31T02:21:04.897Z,53.19
2022-12-31T02:22:04.896Z,53.12
2022-12-31T02:23:04.876Z,53.58
2022-12-31T02:24:04.917Z,54.52
2022-12-31T02:25:04.890Z,53.16
2022-12-31T02:26:04.895Z,52.62
2022-12-31T02:27:04.838Z,52.92
2022-12-31T02:28:05.822Z,51.32
2022-12-31T02:29:04.873Z,53.47
2022-12-31T02:30:04.832Z,52.65
2022-12-31T02:31:04.860Z,51.19
2022-12-31T02:32:04.805Z,50.39
2022-12-31T02:33:04.797Z,51.03
2022-12-31T02:34:04.837Z,48.30
2022-12-31T02:35:04.872Z,50.57
2022-12-31T02:36:04.833Z,48.71
2022-12-31T02:37:04.787Z,51.63
2022-12-31T02:38:04.742Z,49.65
2022-12-31T02:39:04.760Z,50.67
2022-12-31T02:40:04.775Z,53.11
2022-12-31T02:41:04.734Z,50.85
2022-12-31T02:42:04.743Z,51.39
2022-12-31T02:43:04.723Z,50.73
2022-12-31T02:44:04.763Z,51.76
2022-12-31T02:45:04.793Z,50.21
2022-12-31T02:46:04.736Z,51.82
2022-12-31T02:47:04.683Z,52.33
2022-12-31T02:48:04.686Z,48.25
2022-12-31T02:49:04.680Z,49.90
2022-12-31T02:50:04.718Z,54.91
2022-12-31T02:51:04.677Z,51.23
2022-12-31T02:52:04.670Z,54.60
2022-12-31T02:53:04.648Z,50.95
2022-12-31T02:54:04.644Z,49.12
2022-12-31T02:55:04.635Z,49.02
2022-12-31T02:56:04.703Z,49.97
2022-12-31T02:57:04.623Z,50.29
2022-12-31T02:58:04.593Z,54.94
2022-12-31T02:59:04.613Z,51.41
2022-12-31T03:00:04.601Z,56.84
2022-12-31T03:01:04.730Z,51.71
2022-12-31T03:02:04.613Z,52.11
2022-12-31T03:03:04.575Z,50.91
2022-12-31T03:04:04.562Z,51.59
2022-12-31T03:05:04.544Z,51.27
2022-12-31T03:06:04.581Z,53.33
2022-12-31T03:07:04.537Z,52.95
2022-12-31T03:08:04.562Z,50.19
2022-12-31T03:09:04.516Z,52.58
2022-12-31T03:10:04.537Z,51.65
2022-12-31T03:11:04.516Z,50.01
2022-12-31T03:12:04.552Z,48.95
2022-12-31T03:13:04.504Z,49.88
2022-12-31T03:14:04.500Z,51.56
2022-12-31T03:15:04.511Z,51.94
2022-12-31T03:16:04.487Z,50.80
2022-12-31T03:17:04.559Z,50.16
2022-12-31T03:18:04.485Z,53.27
2022-12-31T03:19:04.469Z,53.30
2022-12-31T03:20:04.482Z,51.47
2022-12-31T03:21:05.455Z,54.26
2022-12-31T03:22:04.482Z,51.03
2022-12-31T03:23:04.408Z,56.16
2022-12-31T03:24:04.409Z,60.35
2022-12-31T03:25:04.432Z,58.77
2022-12-31T03:26:04.446Z,57.74
2022-12-31T03:27:04.399Z,55.09
2022-12-31T03:28:04.469Z,52.81
2022-12-31T03:29:04.372Z,53.64
2022-12-31T03:30:04.380Z,52.27
2022-12-31T03:31:04.451Z,51.23
2022-12-31T03:32:04.379Z,52.94
2022-12-31T03:33:04.446Z,52.71
2022-12-31T03:34:04.362Z,53.42
2022-12-31T03:35:04.345Z,50.89
2022-12-31T03:36:04.349Z,52.67
2022-12-31T03:37:04.310Z,54.38
2022-12-31T03:38:04.345Z,58.26
2022-12-31T03:39:04.347Z,54.17
2022-12-31T03:40:04.297Z,52.78
2022-12-31T03:41:04.307Z,54.63
2022-12-31T03:42:04.286Z,52.95
2022-12-31T03:43:04.310Z,53.02
2022-12-31T03:44:04.308Z,54.17
2022-12-31T03:45:04.269Z,51.84
2022-12-31T03:46:04.322Z,54.07
2022-12-31T03:47:04.308Z,54.95
2022-12-31T03:48:04.243Z,58.14
2022-12-31T03:49:04.234Z,52.24
2022-12-31T03:50:04.224Z,58.08
2022-12-31T03:51:04.282Z,53.21
2022-12-31T03:52:04.253Z,51.49
2022-12-31T03:53:04.228Z,50.09
2022-12-31T03:54:04.203Z,53.81
2022-12-31T03:55:04.178Z,51.13
2022-12-31T03:56:04.187Z,54.09
2022-12-31T03:57:04.185Z,53.19
2022-12-31T03:58:04.209Z,51.99
2022-12-31T03:59:04.163Z,51.97
2022-12-31T04:00:04.165Z,50.34
2022-12-31T04:01:04.265Z,57.74
2022-12-31T04:02:04.264Z,51.96
2022-12-31T04:03:04.191Z,55.56
2022-12-31T04:04:04.123Z,53.38
2022-12-31T04:05:04.111Z,52.07
2022-12-31T04:06:04.096Z,53.11
2022-12-31T04:07:04.093Z,53.32
2022-12-31T04:08:04.110Z,50.18
2022-12-31T04:09:04.071Z,52.72
2022-12-31T04:10:04.080Z,51.55
2022-12-31T04:11:04.056Z,49.10
2022-12-31T04:12:04.036Z,52.97
2022-12-31T04:13:04.056Z,51.91
2022-12-31T04:14:04.068Z,48.26
2022-12-31T04:15:04.046Z,51.85
2022-12-31T04:16:04.095Z,52.79
2022-12-31T04:17:04.020Z,51.28
2022-12-31T04:18:04.014Z,50.13
2022-12-31T04:19:03.986Z,49.67
2022-12-31T04:20:04.106Z,47.43
2022-12-31T04:21:04.042Z,48.12
2022-12-31T04:22:03.978Z,50.58
2022-12-31T04:23:03.985Z,49.90
2022-12-31T04:24:03.935Z,49.84
2022-12-31T04:25:03.951Z,53.35
2022-12-31T04:26:03.992Z,51.12
2022-12-31T04:27:07.876Z,51.72
2022-12-31T04:28:04.949Z,50.30
2022-12-31T04:29:04.063Z,49.81
2022-12-31T04:30:03.915Z,50.86
2022-12-31T04:31:03.928Z,48.02
2022-12-31T04:32:03.997Z,49.24
2022-12-31T04:33:03.917Z,50.15
2022-12-31T04:34:03.871Z,49.38
2022-12-31T04:35:03.989Z,49.98
2022-12-31T04:36:03.912Z,50.33
2022-12-31T04:37:03.852Z,47.48
2022-12-31T04:38:03.836Z,48.16
2022-12-31T04:39:03.859Z,49.28
2022-12-31T04:40:06.639Z,49.61
2022-12-31T04:41:04.861Z,49.81
2022-12-31T04:42:03.810Z,49.76
2022-12-31T04:43:03.827Z,48.70
2022-12-31T04:44:03.791Z,48.45
2022-12-31T04:45:03.833Z,52.17
2022-12-31T04:46:04.885Z,48.23
2022-12-31T04:47:03.793Z,47.51
2022-12-31T04:48:03.761Z,47.44
2022-12-31T04:49:03.759Z,49.80
2022-12-31T04:50:03.736Z,47.90
2022-12-31T04:51:03.739Z,48.25
2022-12-31T04:52:03.821Z,49.07
2022-12-31T04:53:03.787Z,49.24
2022-12-31T04:54:03.723Z,50.36
2022-12-31T04:55:03.708Z,49.53
2022-12-31T04:56:03.693Z,49.51
2022-12-31T04:57:04.777Z,49.19
2022-12-31T04:58:03.682Z,47.56
2022-12-31T04:59:03.685Z,48.05
2022-12-31T05:00:03.672Z,50.60
2022-12-31T05:01:03.894Z,49.52
2022-12-31T05:02:03.893Z,54.23
2022-12-31T05:03:03.703Z,49.74
2022-12-31T05:04:03.658Z,49.04
2022-12-31T05:05:03.639Z,48.54
2022-12-31T05:06:03.652Z,49.80
2022-12-31T05:07:03.632Z,51.08
2022-12-31T05:08:03.648Z,49.72
2022-12-31T05:09:03.634Z,52.32
2022-12-31T05:10:03.625Z,49.16
2022-12-31T05:11:03.589Z,51.85
2022-12-31T05:12:03.629Z,52.56
2022-12-31T05:13:03.623Z,50.09
2022-12-31T05:14:03.583Z,48.56
2022-12-31T05:15:03.557Z,47.83
2022-12-31T05:16:03.576Z,47.60
2022-12-31T05:17:03.594Z,48.29
2022-12-31T05:18:03.555Z,52.34
2022-12-31T05:19:03.532Z,54.16
2022-12-31T05:20:03.564Z,49.88
2022-12-31T05:21:03.536Z,51.11
2022-12-31T05:22:03.571Z,51.83
2022-12-31T05:23:03.565Z,49.59
2022-12-31T05:24:03.507Z,49.85
2022-12-31T05:25:03.480Z,49.75
2022-12-31T05:26:03.515Z,48.85
2022-12-31T05:27:03.537Z,48.15
2022-12-31T05:28:03.474Z,49.55
2022-12-31T05:29:03.522Z,50.20
2022-12-31T05:30:03.462Z,47.72
2022-12-31T05:31:03.503Z,49.49
2022-12-31T05:32:03.426Z,50.07
2022-12-31T05:33:03.445Z,50.73
2022-12-31T05:34:03.459Z,48.83
2022-12-31T05:35:03.420Z,52.07
2022-12-31T05:36:03.418Z,49.13
2022-12-31T05:37:03.413Z,50.37
2022-12-31T05:38:03.403Z,50.14
2022-12-31T05:39:03.427Z,52.75
2022-12-31T05:40:03.436Z,53.89
2022-12-31T05:41:03.528Z,50.50
2022-12-31T05:42:03.385Z,51.15
2022-12-31T05:43:03.358Z,53.12
2022-12-31T05:44:03.354Z,51.65
2022-12-31T05:45:03.361Z,51.39
2022-12-31T05:46:03.340Z,50.15
2022-12-31T05:47:03.332Z,53.24
2022-12-31T05:48:03.316Z,50.74
2022-12-31T05:49:03.313Z,49.32
2022-12-31T05:50:03.361Z,49.55
2022-12-31T05:51:03.302Z,50.06
2022-12-31T05:52:03.293Z,52.11
2022-12-31T05:53:03.288Z,50.37
2022-12-31T05:54:03.260Z,52.78
2022-12-31T05:55:03.316Z,52.67
2022-12-31T05:56:03.246Z,49.80
2022-12-31T05:57:03.255Z,50.81
2022-12-31T05:58:03.266Z,50.27
2022-12-31T05:59:03.215Z,50.97
2022-12-31T06:00:03.286Z,51.04
2022-12-31T06:01:03.288Z,54.73
2022-12-31T06:02:03.245Z,51.65
2022-12-31T06:03:03.301Z,50.51
2022-12-31T06:04:03.307Z,54.72
2022-12-31T06:05:03.188Z,55.32
2022-12-31T06:06:03.170Z,51.98
2022-12-31T06:07:03.200Z,52.38
2022-12-31T06:08:03.164Z,51.21
2022-12-31T06:09:03.152Z,54.78
2022-12-31T06:10:03.157Z,51.21
2022-12-31T06:11:03.152Z,50.89
2022-12-31T06:12:03.291Z,51.51
2022-12-31T06:13:03.160Z,55.08
2022-12-31T06:14:03.111Z,53.35
2022-12-31T06:15:03.118Z,52.16
2022-12-31T06:16:03.240Z,52.28
2022-12-31T06:17:03.076Z,52.16
2022-12-31T06:18:03.142Z,51.60
2022-12-31T06:19:03.113Z,51.68
2022-12-31T06:20:06.101Z,49.59
2022-12-31T06:21:05.040Z,52.71
2022-12-31T06:22:03.048Z,50.24
2022-12-31T06:23:03.078Z,51.92
2022-12-31T06:24:03.053Z,50.27
2022-12-31T06:25:03.029Z,48.94
2022-12-31T06:26:03.020Z,52.11
2022-12-31T06:27:02.995Z,50.81
2022-12-31T06:28:03.085Z,50.70
2022-12-31T06:29:02.983Z,50.71
2022-12-31T06:30:02.982Z,49.23
2022-12-31T06:31:03.004Z,51.68
2022-12-31T06:32:03.003Z,49.56
2022-12-31T06:33:03.044Z,51.62
2022-12-31T06:34:02.997Z,51.92
2022-12-31T06:35:03.010Z,52.19
2022-12-31T06:36:02.915Z,51.52
2022-12-31T06:37:02.952Z,52.78
2022-12-31T06:38:02.950Z,52.00
2022-12-31T06:39:03.082Z,53.70
2022-12-31T06:40:02.946Z,52.05
2022-12-31T06:41:02.902Z,51.72
2022-12-31T06:42:02.888Z,50.96
2022-12-31T06:43:02.908Z,49.98
2022-12-31T06:44:02.924Z,50.24
2022-12-31T06:45:02.897Z,50.20
2022-12-31T06:46:02.916Z,50.19
2022-12-31T06:47:02.887Z,49.36
2022-12-31T06:48:02.846Z,51.36
2022-12-31T06:49:02.830Z,51.12
2022-12-31T06:50:02.876Z,51.03
2022-12-31T06:51:02.843Z,49.83
2022-12-31T06:52:02.838Z,49.53
2022-12-31T06:53:02.800Z,48.66
2022-12-31T06:54:02.780Z,49.65
2022-12-31T06:55:02.841Z,51.22
2022-12-31T06:56:02.824Z,52.75
2022-12-31T06:57:02.863Z,52.46
2022-12-31T06:58:02.740Z,51.39
2022-12-31T06:59:02.847Z,50.31
2022-12-31T07:00:02.778Z,50.15
2022-12-31T07:01:02.825Z,50.57
2022-12-31T07:02:02.875Z,56.71
2022-12-31T07:03:02.842Z,58.51
2022-12-31T07:04:02.835Z,59.16
2022-12-31T07:05:02.776Z,50.52
2022-12-31T07:06:02.700Z,51.66
2022-12-31T07:07:02.723Z,51.96
2022-12-31T07:08:02.693Z,50.22
2022-12-31T07:09:02.682Z,51.64
2022-12-31T07:10:02.742Z,53.51
2022-12-31T07:11:02.662Z,49.60
2022-12-31T07:12:02.669Z,49.36
2022-12-31T07:13:02.663Z,55.27
2022-12-31T07:14:02.637Z,52.76
2022-12-31T07:15:02.681Z,52.81
2022-12-31T07:16:02.674Z,55.84
2022-12-31T07:17:02.621Z,54.47
2022-12-31T07:18:02.611Z,53.11
2022-12-31T07:19:02.597Z,53.04
2022-12-31T07:20:02.634Z,52.43
2022-12-31T07:21:02.664Z,52.52
2022-12-31T07:22:02.583Z,52.94
2022-12-31T07:23:02.603Z,52.63
2022-12-31T07:24:02.588Z,54.63
2022-12-31T07:25:02.584Z,53.15
2022-12-31T07:26:02.578Z,50.91
2022-12-31T07:27:02.540Z,50.82
2022-12-31T07:28:02.641Z,53.84
2022-12-31T07:29:02.557Z,51.49
2022-12-31T07:30:02.546Z,51.07
2022-12-31T07:31:02.576Z,52.00
2022-12-31T07:32:02.519Z,53.86
2022-12-31T07:33:02.539Z,54.92
2022-12-31T07:34:02.492Z,55.48
2022-12-31T07:35:02.608Z,52.88
2022-12-31T07:36:02.528Z,53.33
2022-12-31T07:37:02.567Z,54.17
2022-12-31T07:38:02.510Z,51.93
2022-12-31T07:39:02.436Z,50.60
2022-12-31T07:40:02.433Z,52.62
2022-12-31T07:41:07.423Z,51.23
2022-12-31T07:42:04.500Z,53.27
2022-12-31T07:43:02.419Z,53.63
2022-12-31T07:44:02.486Z,54.11
2022-12-31T07:45:02.420Z,51.37
2022-12-31T07:46:02.391Z,52.30
2022-12-31T07:47:02.408Z,53.27
2022-12-31T07:48:03.075Z,53.30
2022-12-31T07:49:03.429Z,53.04
2022-12-31T07:50:02.389Z,52.33
2022-12-31T07:51:02.411Z,52.61
2022-12-31T07:52:02.361Z,49.61
2022-12-31T07:53:02.406Z,50.23
2022-12-31T07:54:02.329Z,50.34
2022-12-31T07:55:02.334Z,54.52
2022-12-31T07:56:02.393Z,53.89
2022-12-31T07:57:02.333Z,52.36
2022-12-31T07:58:02.321Z,54.17
2022-12-31T07:59:02.450Z,50.81
2022-12-31T08:00:02.361Z,52.27
2022-12-31T08:01:02.359Z,52.54
2022-12-31T08:02:02.460Z,53.14
2022-12-31T08:03:02.475Z,51.58
2022-12-31T08:04:02.274Z,50.72
2022-12-31T08:05:02.282Z,51.28
2022-12-31T08:06:02.244Z,55.32
2022-12-31T08:07:02.240Z,53.27
2022-12-31T08:08:02.290Z,53.49
2022-12-31T08:09:02.220Z,52.67
2022-12-31T08:10:02.257Z,54.72
2022-12-31T08:11:02.217Z,52.17
2022-12-31T08:12:02.212Z,51.73
2022-12-31T08:13:02.279Z,56.00
2022-12-31T08:14:02.209Z,52.69
2022-12-31T08:15:02.176Z,54.91
2022-12-31T08:16:02.357Z,52.48
2022-12-31T08:17:02.175Z,54.25
2022-12-31T08:18:02.194Z,53.22
2022-12-31T08:19:02.303Z,51.02
2022-12-31T08:20:02.278Z,53.38
2022-12-31T08:21:02.121Z,53.41
2022-12-31T08:22:02.134Z,56.40
2022-12-31T08:23:02.114Z,54.61
2022-12-31T08:24:02.172Z,53.07
2022-12-31T08:25:02.111Z,54.57
2022-12-31T08:26:02.145Z,54.94
2022-12-31T08:27:02.073Z,53.02
2022-12-31T08:28:02.070Z,52.97
2022-12-31T08:29:02.116Z,53.93
2022-12-31T08:30:02.128Z,54.61
2022-12-31T08:31:02.122Z,53.68
2022-12-31T08:32:02.125Z,53.68
2022-12-31T08:33:02.047Z,53.33
2022-12-31T08:34:05.749Z,53.95
2022-12-31T08:35:03.038Z,54.86
2022-12-31T08:36:02.063Z,53.12
2022-12-31T08:37:02.025Z,54.25
2022-12-31T08:38:02.053Z,53.94
2022-12-31T08:39:01.985Z,51.64
2022-12-31T08:40:02.012Z,56.71
2022-12-31T08:41:01.981Z,54.35
2022-12-31T08:42:01.978Z,52.71
2022-12-31T08:43:01.947Z,51.90
2022-12-31T08:44:01.966Z,57.05
2022-12-31T08:45:02.005Z,56.53
2022-12-31T08:46:02.076Z,55.89
2022-12-31T08:47:01.966Z,52.46
2022-12-31T08:48:01.929Z,50.76
2022-12-31T08:49:01.929Z,52.17
2022-12-31T08:50:01.986Z,49.74
2022-12-31T08:51:01.938Z,52.86
2022-12-31T08:52:01.909Z,54.38
2022-12-31T08:53:01.911Z,54.54
2022-12-31T08:54:01.914Z,55.73
2022-12-31T08:55:01.890Z,55.38
2022-12-31T08:56:01.875Z,55.92
2022-12-31T08:57:01.866Z,54.01
2022-12-31T08:58:01.901Z,54.72
2022-12-31T08:59:01.860Z,53.97
2022-12-31T09:00:01.861Z,53.08
2022-12-31T09:01:01.951Z,54.02
2022-12-31T09:02:01.877Z,52.19
2022-12-31T09:03:01.837Z,50.57
2022-12-31T09:04:01.872Z,52.85
2022-12-31T09:05:01.801Z,50.48
2022-12-31T09:06:01.785Z,53.68
2022-12-31T09:07:01.798Z,50.80
2022-12-31T09:08:01.774Z,49.24
2022-12-31T09:09:01.825Z,52.52
2022-12-31T09:10:01.916Z,51.72
2022-12-31T09:11:01.756Z,52.60
2022-12-31T09:12:01.775Z,54.91
2022-12-31T09:13:01.784Z,53.59
2022-12-31T09:14:01.801Z,53.31
2022-12-31T09:15:01.720Z,52.46
2022-12-31T09:16:01.799Z,51.33
2022-12-31T09:17:01.750Z,53.40
2022-12-31T09:18:01.729Z,55.67
2022-12-31T09:19:02.112Z,54.16
2022-12-31T09:20:01.776Z,51.24
2022-12-31T09:21:01.690Z,50.37
2022-12-31T09:22:01.733Z,51.93
2022-12-31T09:23:01.685Z,51.85
2022-12-31T09:24:06.030Z,50.55
2022-12-31T09:25:03.726Z,49.98
2022-12-31T09:26:01.694Z,52.55
2022-12-31T09:27:01.644Z,54.88
2022-12-31T09:28:01.663Z,53.38
2022-12-31T09:29:01.691Z,50.62
2022-12-31T09:30:01.655Z,54.09
2022-12-31T09:31:01.628Z,54.72
2022-12-31T09:32:01.669Z,55.46
2022-12-31T09:33:01.791Z,50.77
2022-12-31T09:34:01.585Z,51.69
2022-12-31T09:35:01.600Z,53.10
2022-12-31T09:36:01.551Z,52.88
2022-12-31T09:37:01.555Z,52.81
2022-12-31T09:38:05.239Z,53.19
2022-12-31T09:39:02.536Z,51.77
2022-12-31T09:40:01.567Z,50.75
2022-12-31T09:41:01.584Z,51.94
2022-12-31T09:42:01.604Z,54.99
2022-12-31T09:43:01.507Z,54.49
2022-12-31T09:44:01.683Z,53.62
2022-12-31T09:45:01.542Z,54.19
2022-12-31T09:46:01.494Z,52.83
2022-12-31T09:47:01.494Z,54.48
2022-12-31T09:48:01.486Z,53.39
2022-12-31T09:49:01.470Z,51.13
2022-12-31T09:50:01.472Z,54.61
2022-12-31T09:51:01.446Z,52.92
2022-12-31T09:52:01.435Z,52.89
2022-12-31T09:53:01.509Z,54.67
2022-12-31T09:54:01.450Z,51.89
2022-12-31T09:55:01.457Z,53.34
2022-12-31T09:56:01.426Z,53.98
2022-12-31T09:57:01.418Z,52.03
2022-12-31T09:58:01.462Z,52.96
2022-12-31T09:59:01.402Z,54.51
2022-12-31T10:00:01.386Z,52.88
2022-12-31T10:01:01.509Z,54.27
2022-12-31T10:02:01.596Z,58.72
2022-12-31T10:03:01.468Z,60.61
2022-12-31T10:04:01.391Z,59.94
2022-12-31T10:05:01.401Z,54.08
2022-12-31T10:06:01.366Z,55.02
2022-12-31T10:07:01.338Z,51.27
2022-12-31T10:08:01.439Z,53.06
2022-12-31T10:09:01.345Z,52.89
2022-12-31T10:10:01.331Z,51.35
2022-12-31T10:11:01.304Z,51.19
2022-12-31T10:12:01.320Z,53.58
2022-12-31T10:13:01.434Z,54.70
2022-12-31T10:14:01.280Z,52.68
2022-12-31T10:15:01.281Z,53.14
2022-12-31T10:16:01.326Z,54.20
2022-12-31T10:17:01.311Z,55.66
2022-12-31T10:18:01.345Z,54.67
2022-12-31T10:19:01.347Z,51.77
2022-12-31T10:20:01.265Z,53.68
2022-12-31T10:21:01.228Z,55.06
2022-12-31T10:22:01.245Z,56.21
2022-12-31T10:23:01.214Z,55.88
2022-12-31T10:24:01.218Z,53.53
2022-12-31T10:25:01.640Z,52.94
2022-12-31T10:26:01.189Z,55.42
2022-12-31T10:27:01.214Z,53.65
2022-12-31T10:28:01.148Z,53.84
2022-12-31T10:29:01.161Z,51.43
2022-12-31T10:30:01.204Z,53.51
2022-12-31T10:31:01.192Z,52.48
2022-12-31T10:32:01.150Z,51.23
2022-12-31T10:33:01.130Z,53.86
2022-12-31T10:34:01.121Z,52.51
2022-12-31T10:35:01.177Z,52.90
2022-12-31T10:36:01.125Z,55.30
2022-12-31T10:37:01.106Z,55.14
2022-12-31T10:38:01.136Z,56.70
2022-12-31T10:39:01.147Z,52.08
2022-12-31T10:40:01.159Z,50.83
2022-12-31T10:41:01.068Z,50.98
2022-12-31T10:42:01.084Z,53.33
2022-12-31T10:43:01.097Z,50.98
2022-12-31T10:44:01.126Z,54.14
2022-12-31T10:45:01.037Z,55.83
2022-12-31T10:46:01.095Z,55.28
2022-12-31T10:47:01.086Z,55.45
2022-12-31T10:48:01.087Z,54.64
2022-12-31T10:49:01.025Z,54.82
2022-12-31T10:50:01.032Z,54.86
2022-12-31T10:51:01.007Z,53.61
2022-12-31T10:52:00.999Z,54.42
2022-12-31T10:53:01.083Z,54.19
2022-12-31T10:54:01.111Z,56.17
2022-12-31T10:55:00.993Z,57.57
2022-12-31T10:56:00.994Z,54.15
2022-12-31T10:57:00.995Z,58.13
2022-12-31T10:58:04.338Z,54.83
2022-12-31T10:59:01.930Z,54.94
2022-12-31T11:00:00.927Z,55.41
2022-12-31T11:01:01.100Z,53.51
2022-12-31T11:02:01.029Z,55.91
2022-12-31T11:03:00.971Z,58.42
2022-12-31T11:04:01.006Z,54.54
2022-12-31T11:05:00.900Z,57.08
2022-12-31T11:06:00.913Z,56.76
2022-12-31T11:07:01.133Z,56.62
2022-12-31T11:08:00.900Z,56.56
2022-12-31T11:09:00.952Z,54.27
2022-12-31T11:10:01.003Z,54.81
2022-12-31T11:11:00.987Z,54.52
2022-12-31T11:12:00.849Z,54.19
2022-12-31T11:13:00.832Z,56.42
2022-12-31T11:14:00.833Z,55.62
2022-12-31T11:15:00.878Z,54.96
2022-12-31T11:16:00.865Z,55.52
2022-12-31T11:17:00.814Z,55.41
2022-12-31T11:18:00.813Z,54.42
2022-12-31T11:19:00.847Z,52.82
2022-12-31T11:20:00.815Z,53.00
2022-12-31T11:21:00.884Z,55.21
2022-12-31T11:22:00.807Z,54.82
2022-12-31T11:23:00.765Z,54.60
2022-12-31T11:24:00.755Z,54.83
2022-12-31T11:25:01.986Z,56.43
2022-12-31T11:26:00.745Z,54.71
2022-12-31T11:27:00.776Z,56.79
2022-12-31T11:28:00.824Z,57.85
2022-12-31T11:29:00.719Z,53.82
2022-12-31T11:30:00.713Z,53.82
2022-12-31T11:31:00.734Z,56.78
2022-12-31T11:32:00.718Z,54.40
2022-12-31T11:33:00.705Z,54.88
2022-12-31T11:34:00.731Z,56.72
2022-12-31T11:35:00.727Z,55.52
2022-12-31T11:36:00.677Z,53.44
2022-12-31T11:37:00.741Z,53.66
2022-12-31T11:38:00.664Z,53.64
2022-12-31T11:39:00.668Z,53.12
2022-12-31T11:40:00.627Z,54.79
2022-12-31T11:41:00.634Z,57.49
2022-12-31T11:42:00.660Z,53.84
2022-12-31T11:43:00.654Z,53.24
2022-12-31T11:44:00.611Z,54.21
2022-12-31T11:45:00.619Z,54.63
2022-12-31T11:46:00.678Z,53.75
2022-12-31T11:47:00.659Z,53.98
2022-12-31T11:49:02.587Z,53.87
2022-12-31T11:50:00.626Z,52.47
2022-12-31T11:51:00.618Z,53.71
2022-12-31T11:52:00.556Z,52.49
2022-12-31T11:53:00.621Z,54.85
2022-12-31T11:54:00.552Z,55.55
2022-12-31T11:55:00.708Z,54.41
2022-12-31T11:56:00.546Z,53.85
2022-12-31T11:57:00.593Z,54.78
2022-12-31T11:58:00.564Z,54.07
2022-12-31T11:59:04.758Z,56.74
2022-12-31T12:00:01.527Z,55.24
2022-12-31T12:01:00.548Z,54.11
2022-12-31T12:02:00.494Z,54.86
2022-12-31T12:03:00.520Z,53.30
2022-12-31T12:04:00.598Z,51.55
2022-12-31T12:05:03.846Z,51.04
2022-12-31T12:06:01.604Z,53.20
2022-12-31T12:07:00.855Z,54.78
2022-12-31T12:08:00.448Z,55.05
2022-12-31T12:09:00.442Z,54.19
2022-12-31T12:10:00.480Z,51.58
2022-12-31T12:11:00.437Z,52.61
2022-12-31T12:12:00.433Z,56.34
2022-12-31T12:13:00.476Z,55.16
2022-12-31T12:14:00.448Z,53.27
2022-12-31T12:15:00.449Z,53.86
2022-12-31T12:16:00.521Z,52.99
2022-12-31T12:17:04.693Z,58.55
2022-12-31T12:18:02.408Z,54.64
2022-12-31T12:19:00.387Z,53.38
2022-12-31T12:20:00.445Z,55.17
2022-12-31T12:21:00.408Z,59.66
2022-12-31T12:22:01.356Z,56.36
2022-12-31T12:23:00.373Z,53.58
2022-12-31T12:24:00.467Z,56.43
2022-12-31T12:25:00.335Z,55.07
2022-12-31T12:26:00.439Z,55.67
2022-12-31T12:27:00.340Z,55.72
2022-12-31T12:28:00.324Z,55.59
2022-12-31T12:29:00.323Z,53.23
2022-12-31T12:30:00.341Z,54.32
2022-12-31T12:31:00.441Z,53.68
2022-12-31T12:32:00.340Z,55.55
2022-12-31T12:33:00.262Z,57.80
2022-12-31T12:34:01.297Z,54.55
2022-12-31T12:35:00.267Z,51.52
2022-12-31T12:36:00.284Z,51.45
2022-12-31T12:37:00.340Z,52.24
2022-12-31T12:38:00.281Z,52.32
2022-12-31T12:39:00.271Z,51.78
2022-12-31T12:40:00.265Z,54.50
2022-12-31T12:41:00.240Z,55.22
2022-12-31T12:42:00.326Z,56.19
2022-12-31T12:43:00.247Z,56.62
2022-12-31T12:44:00.221Z,59.67
2022-12-31T12:45:00.209Z,59.91
2022-12-31T12:46:00.219Z,54.67
2022-12-31T12:47:00.365Z,54.48
2022-12-31T12:48:00.231Z,54.62
2022-12-31T12:49:00.200Z,53.41
2022-12-31T12:50:00.261Z,54.69
2022-12-31T12:51:00.188Z,53.22
2022-12-31T12:52:00.156Z,53.16
2022-12-31T12:53:00.242Z,54.47